Time;durP1;ratioP1;P1;durP2;ratioP2;P2;SDS_P1;SDS_P2;PMS_P1;PMS_P2;Temp;Humidity;BMP_temperature;BMP_pressure;BME280_temperature;BME280_humidity;BME280_pressure;Samples;Min_cycle;Max_cycle;Signal;HPM_P1;HPM_P2
2023/03/03 00:00:48;;;;;;;;;;;;;;;19.20;32.64;95677.91;10470823;28;2275;-52
2023/03/03 00:05:55;;;;;;;;;;;;;;;19.17;32.80;95677.63;10479128;28;2360;-55
2023/03/03 00:10:56;;;;;;;;;;;;;;;19.16;32.73;95684.75;10476245;28;2279;-53
2023/03/03 00:16:15;;;;;;;;;;;;;;;19.11;32.81;95674.22;10471560;28;2343;-55
2023/03/03 00:21:28;;;;;;;;;;;;;;;19.10;32.73;95670.00;10472010;28;1987;-53
2023/03/03 00:26:35;;;;;;;;;;;;;;;19.07;32.64;95665.28;10468902;28;1976;-54
2023/03/03 00:31:36;;;;;;;;;;;;;;;19.04;32.80;95668.44;10455725;28;2275;-54
2023/03/03 00:36:36;;;;;;;;;;;;;;;19.02;32.69;95665.28;10452941;28;2369;-55
2023/03/03 00:41:36;;;;;;;;;;;;;;;19.01;32.75;95670.81;10453293;28;2320;-55
2023/03/03 00:46:37;;;;;;;;;;;;;;;18.99;32.72;95675.56;10462978;28;2114;-55
2023/03/03 00:51:37;;;;;;;;;;;;;;;18.96;32.76;95676.09;10473067;28;2662;-52
2023/03/03 00:56:37;;;;;;;;;;;;;;;18.95;32.74;95679.75;10456957;28;2306;-53
2023/03/03 01:01:39;;;;;;;;;;;;;;;18.92;32.75;95678.44;10473240;28;2180;-52
2023/03/03 01:06:39;;;;;;;;;;;;;;;18.92;32.61;95681.06;10470835;28;2333;-54
2023/03/03 01:11:39;;;;;;;;;;;;;;;18.87;32.73;95678.47;10456071;28;2039;-53
2023/03/03 01:16:40;;;;;;;;;;;;;;;18.85;32.72;95675.31;10469148;28;2335;-55
2023/03/03 01:21:41;;;;;;;;;;;;;;;18.84;32.75;95673.72;10466552;28;2320;-54
2023/03/03 01:26:42;;;;;;;;;;;;;;;18.83;32.86;95666.91;10470747;28;2315;-53
2023/03/03 01:31:42;;;;;;;;;;;;;;;18.81;32.74;95669.00;10486951;28;2316;-55
2023/03/03 01:36:42;;;;;;;;;;;;;;;18.78;32.71;95669.53;10462927;28;2293;-54
2023/03/03 01:41:43;;;;;;;;;;;;;;;18.76;32.74;95663.75;10473086;28;2324;-55
2023/03/03 01:46:44;;;;;;;;;;;;;;;18.73;32.67;95656.41;10471195;28;2333;-53
2023/03/03 01:51:46;;;;;;;;;;;;;;;18.74;32.66;95657.19;10480505;28;2031;-54
2023/03/03 01:56:47;;;;;;;;;;;;;;;18.72;32.66;95659.28;10464921;28;2362;-53
2023/03/03 02:01:48;;;;;;;;;;;;;;;18.71;32.73;95653.28;10471415;28;2280;-54
2023/03/03 02:06:53;;;;;;;;;;;;;;;18.69;32.47;95647.50;10477971;28;2381;-53
2023/03/03 02:11:56;;;;;;;;;;;;;;;18.65;32.84;95651.66;10484715;28;2050;-53
2023/03/03 02:17:00;;;;;;;;;;;;;;;18.64;32.74;95652.75;10485497;28;2251;-53
2023/03/03 02:22:01;;;;;;;;;;;;;;;18.61;32.79;95648.78;10474082;28;1944;-52
2023/03/03 02:27:02;;;;;;;;;;;;;;;18.60;32.65;95649.84;10442016;28;2002;-53
2023/03/03 02:32:02;;;;;;;;;;;;;;;18.58;32.90;95659.03;10476026;28;2278;-53
2023/03/03 02:37:03;;;;;;;;;;;;;;;18.56;32.92;95656.69;10471543;28;2093;-52
2023/03/03 02:42:08;;;;;;;;;;;;;;;18.56;32.78;95650.63;10464469;28;2050;-55
2023/03/03 02:47:09;;;;;;;;;;;;;;;18.55;32.75;95649.06;10456480;28;2393;-54
2023/03/03 02:52:09;;;;;;;;;;;;;;;18.52;32.63;95650.38;10473897;28;1992;-53
2023/03/03 02:57:09;;;;;;;;;;;;;;;18.49;32.68;95644.84;10467682;28;2307;-54
2023/03/03 03:02:09;;;;;;;;;;;;;;;18.48;32.71;95648.53;10474548;28;2400;-53
2023/03/03 03:07:11;;;;;;;;;;;;;;;18.47;32.77;95652.19;10471989;28;2397;-53
2023/03/03 03:12:11;;;;;;;;;;;;;;;18.45;32.78;95641.19;10473557;28;2499;-54
2023/03/03 03:17:21;;;;;;;;;;;;;;;18.43;32.72;95645.88;10457784;28;2327;-52
2023/03/03 03:22:21;;;;;;;;;;;;;;;18.42;32.85;95650.31;10480961;28;2279;-53
2023/03/03 03:27:22;;;;;;;;;;;;;;;18.42;32.72;95652.19;10475686;28;2277;-54
2023/03/03 03:32:23;;;;;;;;;;;;;;;18.39;32.74;95652.69;10476174;28;2370;-54
2023/03/03 03:37:23;;;;;;;;;;;;;;;18.39;32.74;95655.31;10467940;28;2054;-54
2023/03/03 03:42:23;;;;;;;;;;;;;;;18.36;32.72;95654.00;10467948;28;2055;-52
2023/03/03 03:47:24;;;;;;;;;;;;;;;18.36;32.76;95655.84;10470382;28;2371;-56
2023/03/03 03:52:24;;;;;;;;;;;;;;;18.33;32.85;95656.38;10479052;28;2361;-53
2023/03/03 03:57:25;;;;;;;;;;;;;;;18.33;32.66;95654.53;10483038;28;2271;-54
2023/03/03 04:02:32;;;;;;;;;;;;;;;18.32;32.75;95657.44;10484320;28;2337;-55
2023/03/03 04:07:42;;;;;;;;;;;;;;;18.30;32.70;95662.91;10460153;28;2282;-53
2023/03/03 04:12:47;;;;;;;;;;;;;;;18.29;32.57;95650.84;10476900;28;2322;-54
2023/03/03 04:17:48;;;;;;;;;;;;;;;18.28;32.73;95659.00;10469197;28;2338;-53
2023/03/03 04:22:49;;;;;;;;;;;;;;;18.27;32.73;95657.41;10480948;28;2282;-53
2023/03/03 04:27:51;;;;;;;;;;;;;;;18.26;32.65;95661.09;10469738;28;2394;-55
2023/03/03 04:32:52;;;;;;;;;;;;;;;18.23;32.68;95662.41;10477358;28;2292;-54
2023/03/03 04:37:53;;;;;;;;;;;;;;;18.23;32.67;95664.22;10482791;28;2262;-55
2023/03/03 04:42:54;;;;;;;;;;;;;;;18.21;32.65;95656.63;10470572;28;2328;-53
2023/03/03 04:47:55;;;;;;;;;;;;;;;18.21;32.76;95658.44;10481649;28;2319;-53
2023/03/03 04:52:55;;;;;;;;;;;;;;;18.18;32.71;95658.97;10475913;28;2248;-53
2023/03/03 04:57:56;;;;;;;;;;;;;;;18.18;32.61;95653.72;10475086;28;2046;-55
2023/03/03 05:02:57;;;;;;;;;;;;;;;18.16;32.68;95661.84;10478284;28;2380;-53
2023/03/03 05:07:57;;;;;;;;;;;;;;;18.17;32.76;95657.41;10469067;28;2182;-53
2023/03/03 05:12:58;;;;;;;;;;;;;;;18.20;32.64;95657.66;10472024;28;2273;-53
2023/03/03 05:17:58;;;;;;;;;;;;;;;18.25;32.60;95662.13;10472344;28;2286;-54
2023/03/03 05:23:00;;;;;;;;;;;;;;;18.32;32.42;95660.06;10478154;28;2303;-53
2023/03/03 05:28:03;;;;;;;;;;;;;;;18.39;32.40;95665.81;10468969;28;2308;-54
2023/03/03 05:33:04;;;;;;;;;;;;;;;18.48;32.25;95661.66;10476271;28;2323;-52
2023/03/03 05:38:04;;;;;;;;;;;;;;;18.56;32.20;95672.44;10449849;28;2277;-55
2023/03/03 05:43:06;;;;;;;;;;;;;;;18.63;32.11;95677.41;10478757;28;2030;-52
2023/03/03 05:48:06;;;;;;;;;;;;;;;18.74;31.97;95680.81;10472474;28;2369;-51
2023/03/03 05:53:07;;;;;;;;;;;;;;;18.79;31.83;95681.63;10471152;28;2036;-55
2023/03/03 05:58:07;;;;;;;;;;;;;;;18.86;31.80;95683.97;10482593;28;2297;-52
2023/03/03 06:03:07;;;;;;;;;;;;;;;18.92;31.76;95685.56;10455620;28;2102;-54
2023/03/03 06:08:08;;;;;;;;;;;;;;;18.98;31.53;95697.63;10473533;28;2329;-54
2023/03/03 06:13:08;;;;;;;;;;;;;;;19.02;31.82;95702.06;10467786;28;2298;-54
2023/03/03 06:18:09;;;;;;;;;;;;;;;19.04;31.54;95707.84;10478832;28;2232;-53
2023/03/03 06:23:09;;;;;;;;;;;;;;;19.09;31.66;95718.38;10479447;28;2297;-52
2023/03/03 06:28:10;;;;;;;;;;;;;;;19.28;31.54;95716.78;10461746;28;2414;-58
2023/03/03 06:33:11;;;;;;;;;;;;;;;19.39;31.44;95723.59;10475692;28;2193;-52
2023/03/03 06:38:11;;;;;;;;;;;;;;;19.57;31.60;95724.09;10471975;28;2449;-54
2023/03/03 06:43:12;;;;;;;;;;;;;;;19.68;31.57;95715.13;10472959;28;2090;-54
2023/03/03 06:48:13;;;;;;;;;;;;;;;19.83;31.47;95722.94;10453681;28;2530;-52
2023/03/03 06:53:14;;;;;;;;;;;;;;;19.97;31.36;95723.97;10446295;28;2026;-51
2023/03/03 06:58:15;;;;;;;;;;;;;;;20.09;31.45;95727.06;10466667;28;2079;-49
2023/03/03 07:03:18;;;;;;;;;;;;;;;20.20;31.14;95731.22;10472180;28;2285;-55
2023/03/03 07:08:20;;;;;;;;;;;;;;;20.27;30.99;95737.00;10472513;28;2346;-53
2023/03/03 07:13:30;;;;;;;;;;;;;;;20.35;30.88;95736.41;10474713;28;2351;-48
2023/03/03 07:18:38;;;;;;;;;;;;;;;20.41;30.77;95740.59;10478875;28;2054;-48
2023/03/03 07:23:41;;;;;;;;;;;;;;;20.48;30.79;95749.00;10468563;28;2116;-51
2023/03/03 07:28:42;;;;;;;;;;;;;;;20.54;30.63;95760.28;10452497;28;2258;-45
2023/03/03 07:33:43;;;;;;;;;;;;;;;20.58;30.37;95756.81;10469162;28;2265;-51
2023/03/03 07:38:51;;;;;;;;;;;;;;;20.63;29.94;95766.53;10467030;28;2332;-52
2023/03/03 07:43:53;;;;;;;;;;;;;;;20.68;29.71;95771.75;10447585;28;2361;-52
2023/03/03 07:48:53;;;;;;;;;;;;;;;20.66;29.74;95774.69;10462983;28;2306;-47
2023/03/03 07:53:59;;;;;;;;;;;;;;;20.66;29.73;95776.53;10467005;28;2027;-51
2023/03/03 07:59:00;;;;;;;;;;;;;;;20.70;29.67;95775.72;10461777;28;2285;-50
2023/03/03 08:04:01;;;;;;;;;;;;;;;20.70;29.28;95780.97;10470345;28;2350;-50
2023/03/03 08:09:12;;;;;;;;;;;;;;;20.73;29.47;95780.41;10463465;28;2314;-54
2023/03/03 08:14:13;;;;;;;;;;;;;;;20.72;29.49;95783.31;10470300;28;2030;-54
2023/03/03 08:19:15;;;;;;;;;;;;;;;20.71;29.40;95776.50;10459791;28;2385;-53
2023/03/03 08:24:15;;;;;;;;;;;;;;;20.68;29.45;95769.94;10452595;28;2321;-49
2023/03/03 08:29:15;;;;;;;;;;;;;;;20.66;29.71;95777.31;10480048;28;2281;-52
2023/03/03 08:34:16;;;;;;;;;;;;;;;20.63;29.82;95788.38;10466908;28;2326;-53
2023/03/03 08:39:16;;;;;;;;;;;;;;;20.56;29.91;95787.13;10467338;28;2285;-53
2023/03/03 08:44:19;;;;;;;;;;;;;;;20.55;29.92;95793.44;10476640;28;2273;-51
2023/03/03 08:49:22;;;;;;;;;;;;;;;20.55;30.04;95796.84;10496127;28;2641;-52
2023/03/03 08:54:22;;;;;;;;;;;;;;;20.43;30.11;95799.03;10459331;28;2289;-52
2023/03/03 08:59:23;;;;;;;;;;;;;;;20.46;30.23;95806.41;10472105;28;2114;-52
2023/03/03 09:04:24;;;;;;;;;;;;;;;20.41;30.24;95802.97;10468233;28;2322;-53
2023/03/03 09:09:25;;;;;;;;;;;;;;;20.38;30.39;95800.91;10465450;28;2055;-52
2023/03/03 09:14:26;;;;;;;;;;;;;;;20.37;30.60;95810.66;10479489;28;2237;-52
2023/03/03 09:19:31;;;;;;;;;;;;;;;20.36;30.25;95811.69;10472371;28;2376;-54
2023/03/03 09:24:33;;;;;;;;;;;;;;;20.34;30.27;95811.16;10470540;28;2313;-52
2023/03/03 09:29:40;;;;;;;;;;;;;;;20.34;30.00;95813.03;10472133;28;2611;-54
2023/03/03 09:34:41;;;;;;;;;;;;;;;20.27;30.39;95819.38;10471183;28;2315;-52
2023/03/03 09:39:55;;;;;;;;;;;;;;;20.25;30.48;95820.72;10473484;28;2264;-52
2023/03/03 09:45:01;;;;;;;;;;;;;;;20.31;30.17;95824.88;10468505;28;2052;-53
2023/03/03 09:50:21;;;;;;;;;;;;;;;20.29;30.29;95827.00;10466792;28;2392;-53
2023/03/03 09:55:26;;;;;;;;;;;;;;;20.38;30.18;95833.28;10476140;28;2358;-53
2023/03/03 10:00:29;;;;;;;;;;;;;;;20.49;30.13;95829.53;10475358;28;2503;-53
2023/03/03 10:05:52;;;;;;;;;;;;;;;20.53;30.04;95833.22;10464625;28;2567;-51
2023/03/03 10:11:00;;;;;;;;;;;;;;;20.63;29.87;95842.94;10447426;28;2739;-53
2023/03/03 10:16:08;;;;;;;;;;;;;;;20.69;29.87;95842.59;10451212;28;2331;-54
2023/03/03 10:21:10;;;;;;;;;;;;;;;20.74;29.84;95850.50;10462975;28;2536;-54
2023/03/03 10:26:33;;;;;;;;;;;;;;;20.81;29.94;95856.22;10474246;28;2561;-54
2023/03/03 10:31:49;;;;;;;;;;;;;;;20.84;29.87;95852.28;10462810;28;2571;-52
2023/03/03 10:36:59;;;;;;;;;;;;;;;20.90;29.64;95857.25;10477971;28;2705;-53
2023/03/03 10:42:14;;;;;;;;;;;;;;;20.93;29.66;95858.56;10479234;28;2564;-51
2023/03/03 10:47:34;;;;;;;;;;;;;;;20.94;29.25;95850.38;10475111;28;2458;-52
2023/03/03 10:52:43;;;;;;;;;;;;;;;20.98;28.75;95846.13;10463140;28;2629;-54
2023/03/03 10:57:57;;;;;;;;;;;;;;;20.99;29.03;95852.19;10458660;28;2299;-53
2023/03/03 11:03:00;;;;;;;;;;;;;;;20.97;29.08;95852.47;10442821;28;2492;-53
2023/03/03 11:08:02;;;;;;;;;;;;;;;20.94;29.34;95858.28;10466287;28;2607;-55
2023/03/03 11:13:14;;;;;;;;;;;;;;;20.94;29.48;95853.00;10471005;28;2568;-53
2023/03/03 11:18:36;;;;;;;;;;;;;;;20.93;29.44;95859.34;10463226;28;2681;-52
2023/03/03 11:23:49;;;;;;;;;;;;;;;20.98;29.13;95861.94;10446876;28;2615;-51
2023/03/03 11:29:04;;;;;;;;;;;;;;;20.99;29.31;95862.72;10454287;28;2623;-53
2023/03/03 11:34:10;;;;;;;;;;;;;;;20.97;29.73;95855.09;10467917;28;2677;-52
2023/03/03 11:39:26;;;;;;;;;;;;;;;21.00;29.95;95853.75;10496376;28;2609;-54
2023/03/03 11:44:28;;;;;;;;;;;;;;;21.02;30.15;95843.75;10448594;28;2568;-50
2023/03/03 11:49:33;;;;;;;;;;;;;;;21.08;30.10;95829.50;10474133;28;2563;-55
2023/03/03 11:54:40;;;;;;;;;;;;;;;21.12;29.79;95827.91;10472566;28;2589;-55
2023/03/03 11:59:48;;;;;;;;;;;;;;;21.15;30.07;95824.69;10475145;28;2625;-56
2023/03/03 12:04:48;;;;;;;;;;;;;;;21.15;30.10;95827.31;10466578;28;2599;-61
2023/03/03 12:09:49;;;;;;;;;;;;;;;21.21;30.03;95828.06;10466998;28;2602;-53
2023/03/03 12:14:49;;;;;;;;;;;;;;;21.25;30.27;95818.53;10466733;28;2532;-54
2023/03/03 12:20:06;;;;;;;;;;;;;;;21.28;30.23;95821.44;10470087;28;2635;-54
2023/03/03 12:25:23;;;;;;;;;;;;;;;21.30;30.33;95821.94;10464616;28;2666;-55
2023/03/03 12:30:26;;;;;;;;;;;;;;;21.33;30.20;95815.34;10443562;28;2551;-51
2023/03/03 12:35:27;;;;;;;;;;;;;;;21.34;30.10;95819.53;10461785;28;2261;-54
2023/03/03 12:40:32;;;;;;;;;;;;;;;21.36;29.46;95817.41;10468678;28;2591;-54
2023/03/03 12:45:43;;;;;;;;;;;;;;;21.33;29.83;95821.38;10485191;28;2608;-54
2023/03/03 12:50:48;;;;;;;;;;;;;;;21.37;29.99;95808.44;10453917;28;2427;-53
2023/03/03 12:55:54;;;;;;;;;;;;;;;21.42;29.94;95809.19;10466142;28;2368;-54
2023/03/03 13:01:13;;;;;;;;;;;;;;;21.38;30.10;95813.44;10467708;28;2532;-54
2023/03/03 13:06:38;;;;;;;;;;;;;;;21.45;30.16;95813.13;10473802;28;2323;-54
2023/03/03 13:11:42;;;;;;;;;;;;;;;21.41;30.32;95807.59;10431174;28;2591;-54
2023/03/03 13:17:00;;;;;;;;;;;;;;;21.43;30.18;95804.72;10451660;28;2698;-56
2023/03/03 13:22:07;;;;;;;;;;;;;;;21.47;30.18;95805.72;10476579;28;2610;-52
2023/03/03 13:27:18;;;;;;;;;;;;;;;21.51;29.95;95796.19;10458848;28;2662;-52
2023/03/03 13:32:22;;;;;;;;;;;;;;;21.53;30.14;95796.69;10482999;28;2560;-54
2023/03/03 13:37:37;;;;;;;;;;;;;;;21.55;30.20;95800.63;10466533;28;2606;-54
2023/03/03 13:42:43;;;;;;;;;;;;;;;21.61;30.17;95796.09;10459877;28;2635;-50
2023/03/03 13:47:52;;;;;;;;;;;;;;;21.64;30.23;95795.53;10453104;28;2558;-50
2023/03/03 13:53:12;;;;;;;;;;;;;;;21.70;30.00;95789.16;10459431;28;2607;-53
2023/03/03 13:58:16;;;;;;;;;;;;;;;21.81;30.03;95790.59;10458196;28;2691;-55
2023/03/03 14:03:39;;;;;;;;;;;;;;;21.84;29.83;95774.25;10463084;28;2291;-52
2023/03/03 14:08:46;;;;;;;;;;;;;;;21.90;29.43;95770.50;10468079;28;2662;-53
2023/03/03 14:13:58;;;;;;;;;;;;;;;22.01;29.13;95760.59;10437042;28;2598;-54
2023/03/03 14:19:01;;;;;;;;;;;;;;;21.90;29.38;95762.56;10467549;28;2543;-53
2023/03/03 14:24:05;;;;;;;;;;;;;;;21.96;29.53;95750.91;10470484;28;2593;-56
2023/03/03 14:29:14;;;;;;;;;;;;;;;21.92;29.79;95757.81;10466688;28;2598;-53
2023/03/03 14:34:21;;;;;;;;;;;;;;;21.93;29.74;95751.44;10440136;28;2667;-52
2023/03/03 14:39:28;;;;;;;;;;;;;;;21.94;29.25;95753.03;10450452;28;2595;-52
2023/03/03 14:44:29;;;;;;;;;;;;;;;21.90;29.66;95743.31;10468276;28;2261;-51
2023/03/03 14:49:31;;;;;;;;;;;;;;;21.84;30.04;95750.50;10478153;28;2701;-52
2023/03/03 14:54:38;;;;;;;;;;;;;;;21.81;29.84;95754.50;10468015;28;2608;-54
2023/03/03 14:59:39;;;;;;;;;;;;;;;21.76;29.91;95761.66;10478875;28;2402;-52
2023/03/03 15:04:40;;;;;;;;;;;;;;;21.71;30.06;95765.13;10449486;28;2360;-52
2023/03/03 15:09:40;;;;;;;;;;;;;;;21.65;30.30;95754.91;10464473;28;2470;-53
2023/03/03 15:14:42;;;;;;;;;;;;;;;21.64;29.98;95755.94;10450283;28;2579;-53
2023/03/03 15:19:48;;;;;;;;;;;;;;;21.59;30.04;95758.66;10440391;28;2582;-53
2023/03/03 15:24:51;;;;;;;;;;;;;;;21.61;30.30;95759.16;10462547;28;2544;-54
2023/03/03 15:30:02;;;;;;;;;;;;;;;21.61;30.17;95762.59;10457867;28;2643;-55
2023/03/03 15:35:10;;;;;;;;;;;;;;;21.63;29.84;95767.59;10450422;28;2300;-57
2023/03/03 15:40:27;;;;;;;;;;;;;;;21.67;29.74;95769.38;10474531;28;2568;-56
2023/03/03 15:45:32;;;;;;;;;;;;;;;21.71;29.69;95764.34;10468769;28;2553;-55
2023/03/03 15:50:37;;;;;;;;;;;;;;;21.76;28.98;95762.41;10465238;28;2277;-54
2023/03/03 15:55:50;;;;;;;;;;;;;;;21.61;30.03;95761.81;10457205;28;2731;-55
2023/03/03 16:01:11;;;;;;;;;;;;;;;21.62;29.14;95761.50;10458550;28;2622;-55
2023/03/03 16:06:16;;;;;;;;;;;;;;;21.50;29.87;95768.22;10465440;28;2539;-54
2023/03/03 16:11:35;;;;;;;;;;;;;;;21.42;29.77;95763.56;10475876;28;2535;-56
2023/03/03 16:16:39;;;;;;;;;;;;;;;21.33;30.21;95773.16;10464492;28;2603;-54
2023/03/03 16:21:42;;;;;;;;;;;;;;;21.22;30.26;95774.28;10461944;28;2657;-54
2023/03/03 16:27:01;;;;;;;;;;;;;;;21.17;30.41;95771.69;10476703;28;2300;-55
2023/03/03 16:32:08;;;;;;;;;;;;;;;21.11;30.61;95780.69;10463369;28;2600;-54
2023/03/03 16:37:21;;;;;;;;;;;;;;;21.05;30.70;95778.13;10452994;28;2277;-55
2023/03/03 16:42:29;;;;;;;;;;;;;;;21.00;30.45;95782.59;10456090;28;2787;-53
2023/03/03 16:47:35;;;;;;;;;;;;;;;20.98;30.99;95790.00;10456331;28;2592;-55
2023/03/03 16:52:44;;;;;;;;;;;;;;;20.96;30.86;95795.53;10471210;28;2906;-56
2023/03/03 16:57:50;;;;;;;;;;;;;;;20.96;30.72;95805.28;10466192;28;2333;-53
2023/03/03 17:02:56;;;;;;;;;;;;;;;20.91;30.82;95805.34;10447704;28;2604;-55
2023/03/03 17:08:25;;;;;;;;;;;;;;;20.89;30.61;95805.63;10444627;28;2631;-55
2023/03/03 17:13:29;;;;;;;;;;;;;;;20.90;30.81;95804.53;10468986;28;2555;-54
2023/03/03 17:18:42;;;;;;;;;;;;;;;20.87;30.76;95807.75;10453231;28;2620;-53
2023/03/03 17:23:49;;;;;;;;;;;;;;;20.85;30.78;95825.66;10470367;28;2590;-54
2023/03/03 17:28:59;;;;;;;;;;;;;;;20.84;30.79;95824.09;10468971;28;2596;-55
2023/03/03 17:34:01;;;;;;;;;;;;;;;20.84;30.82;95834.63;10458164;28;2548;-54
2023/03/03 17:39:05;;;;;;;;;;;;;;;20.83;30.61;95838.34;10469214;28;2320;-53
2023/03/03 17:44:09;;;;;;;;;;;;;;;20.78;30.79;95843.63;10464876;28;2568;-55
2023/03/03 17:49:19;;;;;;;;;;;;;;;20.81;30.95;95848.31;10466868;28;2536;-54
2023/03/03 17:54:28;;;;;;;;;;;;;;;20.82;30.59;95851.75;10458361;28;2532;-51
2023/03/03 17:59:37;;;;;;;;;;;;;;;20.81;30.81;95853.59;10468474;28;2531;-53
2023/03/03 18:04:58;;;;;;;;;;;;;;;20.82;30.77;95857.81;10465758;28;2837;-54
2023/03/03 18:09:58;;;;;;;;;;;;;;;20.80;30.66;95865.22;10474294;28;2738;-51
2023/03/03 18:15:09;;;;;;;;;;;;;;;20.81;30.62;95861.50;10474610;28;2544;-53
2023/03/03 18:20:29;;;;;;;;;;;;;;;20.78;30.82;95867.31;10471619;28;2572;-53
2023/03/03 18:25:49;;;;;;;;;;;;;;;20.78;30.66;95871.81;10472165;28;2607;-56
2023/03/03 18:30:55;;;;;;;;;;;;;;;20.77;30.61;95871.00;10462300;28;2559;-51
2023/03/03 18:35:55;;;;;;;;;;;;;;;20.76;30.58;95872.09;10474209;28;2319;-52
2023/03/03 18:41:03;;;;;;;;;;;;;;;20.77;30.57;95876.28;10448529;28;2556;-51
2023/03/03 18:46:03;;;;;;;;;;;;;;;20.76;30.57;95885.25;10461526;28;2555;-55
2023/03/03 18:51:05;;;;;;;;;;;;;;;20.77;30.53;95875.50;10473015;28;2571;-55
2023/03/03 18:56:08;;;;;;;;;;;;;;;20.76;30.47;95879.97;10445963;28;2571;-54
2023/03/03 19:01:30;;;;;;;;;;;;;;;20.75;30.53;95888.94;10462364;28;2674;-55
2023/03/03 19:06:37;;;;;;;;;;;;;;;20.75;30.66;95885.53;10466499;28;2214;-53
2023/03/03 19:11:37;;;;;;;;;;;;;;;20.73;30.56;95896.31;10447675;28;2608;-53
2023/03/03 19:16:37;;;;;;;;;;;;;;;20.75;30.44;95898.69;10463583;28;2595;-53
2023/03/03 19:21:38;;;;;;;;;;;;;;;20.73;30.46;95898.94;10470521;28;2705;-53
2023/03/03 19:26:50;;;;;;;;;;;;;;;20.70;30.62;95911.88;10469140;28;2536;-54
2023/03/03 19:31:54;;;;;;;;;;;;;;;20.68;30.60;95909.53;10463962;28;2266;-56
2023/03/03 19:36:57;;;;;;;;;;;;;;;20.67;30.55;95910.56;10463801;28;2271;-54
2023/03/03 19:41:57;;;;;;;;;;;;;;;20.66;30.40;95901.09;10482089;28;2390;-56
2023/03/03 19:47:17;;;;;;;;;;;;;;;20.66;30.49;95903.75;10476779;28;2301;-56
2023/03/03 19:52:35;;;;;;;;;;;;;;;20.66;30.42;95908.22;10473111;28;2617;-53
2023/03/03 19:57:55;;;;;;;;;;;;;;;20.65;30.49;95911.91;10476502;28;2603;-53
2023/03/03 20:03:27;;;;;;;;;;;;;;;20.67;30.43;95918.47;10472366;28;2626;-54
2023/03/03 20:08:30;;;;;;;;;;;;;;;20.67;30.40;95915.84;10442846;28;2760;-52
2023/03/03 20:13:36;;;;;;;;;;;;;;;20.68;30.28;95922.69;10473829;28;2610;-54
2023/03/03 20:18:57;;;;;;;;;;;;;;;20.67;30.53;95928.25;10472727;28;2571;-54
2023/03/03 20:24:33;;;;;;;;;;;;;;;20.68;30.18;95922.69;10457468;28;2493;-52
2023/03/03 20:29:39;;;;;;;;;;;;;;;20.70;30.27;95933.75;10350359;28;2348;-54
2023/03/03 20:34:42;;;;;;;;;;;;;;;20.66;30.22;95922.19;10455103;28;2631;-55
2023/03/03 20:39:49;;;;;;;;;;;;;;;20.64;30.52;95926.94;10458704;28;2587;-53
2023/03/03 20:45:04;;;;;;;;;;;;;;;20.62;30.45;95936.16;10453826;28;2284;-55
2023/03/03 20:50:24;;;;;;;;;;;;;;;20.58;30.54;95940.38;10483600;28;2700;-51
2023/03/03 20:55:28;;;;;;;;;;;;;;;20.53;30.58;95940.38;10467972;28;2266;-54
2023/03/03 21:00:28;;;;;;;;;;;;;;;20.49;30.56;95934.06;10461049;28;2689;-54
2023/03/03 21:05:29;;;;;;;;;;;;;;;20.43;30.43;95933.31;10464713;28;2617;-54
2023/03/03 21:10:34;;;;;;;;;;;;;;;20.39;30.68;95940.16;10465846;28;2611;-54
2023/03/03 21:15:39;;;;;;;;;;;;;;;20.35;30.71;95939.13;10455379;28;2623;-54
2023/03/03 21:20:40;;;;;;;;;;;;;;;20.31;30.87;95935.47;10467650;28;2614;-55
2023/03/03 21:25:41;;;;;;;;;;;;;;;20.26;30.81;95938.88;10473199;28;2543;-56
2023/03/03 21:31:01;;;;;;;;;;;;;;;20.21;30.73;95931.00;10471783;28;2576;-54
2023/03/03 21:36:03;;;;;;;;;;;;;;;20.18;30.91;95941.22;10468950;28;2277;-52
2023/03/03 21:41:04;;;;;;;;;;;;;;;20.14;30.84;95940.19;10464746;28;2653;-54
2023/03/03 21:46:04;;;;;;;;;;;;;;;20.08;30.95;95936.00;10469768;28;2592;-53
2023/03/03 21:51:05;;;;;;;;;;;;;;;20.06;30.83;95949.41;10480447;28;2635;-55
2023/03/03 21:56:05;;;;;;;;;;;;;;;20.02;30.81;95943.09;10486765;28;2595;-55
2023/03/03 22:01:09;;;;;;;;;;;;;;;20.00;30.83;95945.22;10471895;28;2576;-53
2023/03/03 22:06:19;;;;;;;;;;;;;;;19.96;31.08;95946.81;10468226;28;2671;-56
2023/03/03 22:11:20;;;;;;;;;;;;;;;19.94;31.33;95946.28;10474626;28;2622;-53
2023/03/03 22:16:22;;;;;;;;;;;;;;;19.95;31.38;95939.94;10467850;28;2356;-57
2023/03/03 22:21:23;;;;;;;;;;;;;;;19.96;31.52;95949.44;10471780;28;2317;-58
2023/03/03 22:26:23;;;;;;;;;;;;;;;19.93;31.45;95946.53;10474571;28;2584;-54
2023/03/03 22:31:24;;;;;;;;;;;;;;;19.89;31.52;95950.72;10459959;28;2611;-55
2023/03/03 22:36:25;;;;;;;;;;;;;;;19.86;31.82;95949.44;10472011;28;2670;-57
2023/03/03 22:41:25;;;;;;;;;;;;;;;19.82;32.09;95953.66;10472195;28;2300;-56
2023/03/03 22:46:26;;;;;;;;;;;;;;;19.79;32.37;95953.38;10464736;28;2607;-57
2023/03/03 22:51:26;;;;;;;;;;;;;;;19.75;32.65;95950.47;10463632;28;2656;-55
2023/03/03 22:56:27;;;;;;;;;;;;;;;19.75;32.75;95952.31;10468836;28;2591;-55
2023/03/03 23:01:28;;;;;;;;;;;;;;;19.74;33.24;95956.00;10457964;28;2575;-55
2023/03/03 23:06:28;;;;;;;;;;;;;;;19.70;33.50;95952.34;10462899;28;2239;-55
2023/03/03 23:11:29;;;;;;;;;;;;;;;19.68;33.23;95951.81;10469431;28;2253;-56
2023/03/03 23:16:29;;;;;;;;;;;;;;;19.66;33.72;95951.28;10469218;28;2560;-56
2023/03/03 23:21:31;;;;;;;;;;;;;;;19.63;33.74;95944.69;10487203;28;2663;-54
2023/03/03 23:26:32;;;;;;;;;;;;;;;19.59;33.45;95935.75;10469665;28;2567;-55
2023/03/03 23:31:32;;;;;;;;;;;;;;;19.57;33.63;95937.06;10473463;28;2610;-55
2023/03/03 23:36:33;;;;;;;;;;;;;;;19.54;33.48;95940.22;10477857;28;2647;-56
2023/03/03 23:41:34;;;;;;;;;;;;;;;19.51;33.57;95938.13;10474513;28;2583;-56
2023/03/03 23:46:36;;;;;;;;;;;;;;;19.48;33.39;95939.41;10478123;28;2568;-56
2023/03/03 23:51:37;;;;;;;;;;;;;;;19.45;33.55;95948.59;10471268;28;2281;-54
2023/03/03 23:56:37;;;;;;;;;;;;;;;19.43;33.37;95945.44;10474738;28;2324;-55
